Overview Statistics Trail Chart Weather Telemetry Raw packets
 

This is the latest recevied weather packets stored in our database for station/object DO1BDB-12. If no packets are shown the sender has not sent any weather packets the latest 10 day(s).

<< 469 470 471 472 473 474 475 >>
Time Temp. Humidity Pressure Rain* Wind** Luminosity Snow
1787819074 26.11° C 41% 102.1 hPa - - - -
1787819008 26.67° C 40% 102.1 hPa - - - -
1787818942 27.22° C 40% 102.1 hPa - - - -
1787818876 27.78° C 40% 102.1 hPa - - - -
1787818810 25.56° C 43% 102.1 hPa - - - -
1787818745 24.44° C 45% 102.1 hPa - - - -
1787818679 25° C 43% 102.1 hPa - - - -
1787818613 25° C 43% 102.1 hPa - - - -
1787818547 23.89° C 44% 102.1 hPa - - - -
1787818481 25.56° C 43% 102.1 hPa - - - -
1787818415 25.56° C 43% 102.1 hPa - - - -
1787818350 23.89° C 45% 102.1 hPa - - - -
1787818284 24.44° C 45% 102.1 hPa - - - -
1787818218 23.89° C 46% 102.1 hPa - - - -
1787818152 25.56° C 42% 102.1 hPa - - - -
1787818086 25.56° C 43% 102.1 hPa - - - -
1787818020 24.44° C 44% 102.1 hPa - - - -
1787817957 25° C 43% 102.1 hPa - - - -
1787817889 25.56° C 43% 102.1 hPa - - - -
1787817823 26.67° C 41% 102.1 hPa - - - -
1787817757 25.56° C 42% 102.1 hPa - - - -
1787817691 25° C 43% 102.1 hPa - - - -
1787817625 27.22° C 40% 102.1 hPa - - - -
1787817559 25° C 44% 102.1 hPa - - - -
1787817494 24.44° C 44% 102.1 hPa - - - -

* Rain since midnight (hover to see other rain measurements)
** Current wind speed in m/s (hover to see current wind gust speed)